createdAt,value
2023-02-16T00:00:32.816Z,3.03
2023-02-16T00:02:59.957Z,2.92
2023-02-16T00:05:32.990Z,2.77
2023-02-16T00:08:01.451Z,2.76
2023-02-16T00:10:34.914Z,2.78
2023-02-16T00:13:47.597Z,2.66
2023-02-16T00:16:22.393Z,2.76
2023-02-16T00:18:51.009Z,2.87
2023-02-16T00:21:18.880Z,2.78
2023-02-16T00:23:48.212Z,2.73
2023-02-16T00:26:25.721Z,2.77
2023-02-16T00:29:00.743Z,2.80
2023-02-16T00:31:32.557Z,2.82
2023-02-16T00:34:35.670Z,2.80
2023-02-16T00:37:10.600Z,2.85
2023-02-16T00:39:40.500Z,2.83
2023-02-16T00:42:29.004Z,2.74
2023-02-16T00:44:57.915Z,2.65
2023-02-16T00:47:42.919Z,2.63
2023-02-16T00:50:29.085Z,2.53
2023-02-16T00:52:58.470Z,2.44
2023-02-16T00:55:33.624Z,2.45
2023-02-16T00:58:30.774Z,2.47
2023-02-16T01:01:11.300Z,2.51
2023-02-16T01:03:38.995Z,2.49
2023-02-16T01:06:24.993Z,2.63
2023-02-16T01:09:14.382Z,2.64
2023-02-16T01:11:41.661Z,2.58
2023-02-16T01:14:12.670Z,2.51
2023-02-16T01:16:43.208Z,2.37
2023-02-16T01:19:14.047Z,2.37
2023-02-16T01:21:41.488Z,2.36
2023-02-16T01:24:08.797Z,2.24
2023-02-16T01:26:44.553Z,2.19
2023-02-16T01:29:21.372Z,2.16
2023-02-16T01:31:50.573Z,2.21
2023-02-16T01:34:17.756Z,2.27
2023-02-16T01:36:48.266Z,2.20
2023-02-16T01:39:21.113Z,2.16
2023-02-16T01:42:41.451Z,2.21
2023-02-16T01:45:29.651Z,2.17
2023-02-16T01:48:09.821Z,2.11
2023-02-16T01:51:04.872Z,2.03
2023-02-16T01:53:47.159Z,1.98
2023-02-16T01:56:47.131Z,1.97
2023-02-16T01:59:33.297Z,1.98
2023-02-16T02:02:12.486Z,2.01
2023-02-16T02:05:27.136Z,1.97
2023-02-16T02:08:45.339Z,1.96
2023-02-16T02:11:27.330Z,1.86
2023-02-16T02:14:09.896Z,1.72
2023-02-16T02:16:37.357Z,1.67
2023-02-16T02:19:04.772Z,1.67
2023-02-16T02:22:41.396Z,1.62
2023-02-16T02:25:46.761Z,1.47
2023-02-16T02:28:29.463Z,1.34
2023-02-16T02:31:41.997Z,1.43
2023-02-16T02:35:08.051Z,1.47
2023-02-16T02:38:09.998Z,1.57
2023-02-16T02:41:45.598Z,1.60
2023-02-16T02:44:18.849Z,1.66
2023-02-16T02:46:46.962Z,1.73
2023-02-16T02:49:15.061Z,1.69
2023-02-16T02:51:43.746Z,1.59
2023-02-16T02:54:47.240Z,1.52
2023-02-16T02:58:04.728Z,1.66
2023-02-16T03:00:41.182Z,1.66
2023-02-16T03:03:44.974Z,1.66
2023-02-16T03:06:23.813Z,1.63
2023-02-16T03:09:11.260Z,1.51
2023-02-16T03:11:57.121Z,1.46
2023-02-16T03:14:59.078Z,1.42
2023-02-16T03:17:56.369Z,1.33
2023-02-16T03:20:42.439Z,1.31
2023-02-16T03:23:28.495Z,1.40
2023-02-16T03:26:14.545Z,1.35
2023-02-16T03:29:03.364Z,1.35
2023-02-16T03:31:38.929Z,1.33
2023-02-16T03:34:07.269Z,1.28
2023-02-16T03:36:39.256Z,1.23
2023-02-16T03:39:07.920Z,1.20
2023-02-16T03:41:43.583Z,1.21
2023-02-16T03:44:11.175Z,1.17
2023-02-16T03:46:38.396Z,1.19
2023-02-16T03:49:05.635Z,1.14
2023-02-16T03:51:32.769Z,1.13
2023-02-16T03:53:59.992Z,1.14
2023-02-16T03:56:27.322Z,1.12
2023-02-16T03:58:54.752Z,1.14
2023-02-16T04:01:21.896Z,1.14
2023-02-16T04:03:49.281Z,1.17
2023-02-16T04:06:16.516Z,1.15
2023-02-16T04:08:43.832Z,1.14
2023-02-16T04:11:29.920Z,1.19
2023-02-16T04:13:57.054Z,1.15
2023-02-16T04:16:24.331Z,1.09
2023-02-16T04:18:51.634Z,1.01
2023-02-16T04:21:18.766Z,0.95
2023-02-16T04:23:46.001Z,0.86
2023-02-16T04:26:13.106Z,0.84
2023-02-16T04:28:40.280Z,0.85
2023-02-16T04:31:07.977Z,0.83
2023-02-16T04:33:35.277Z,0.81
2023-02-16T04:36:02.515Z,0.91
2023-02-16T04:38:29.707Z,0.90
2023-02-16T04:40:56.855Z,0.87
2023-02-16T04:43:24.081Z,0.84
2023-02-16T04:45:51.286Z,0.83
2023-02-16T04:48:18.541Z,0.77
2023-02-16T04:50:45.698Z,0.73
2023-02-16T04:53:12.946Z,0.76
2023-02-16T04:55:48.277Z,0.79
2023-02-16T04:58:17.234Z,0.82
2023-02-16T05:00:44.481Z,0.77
2023-02-16T05:03:11.725Z,0.77
2023-02-16T05:05:40.556Z,0.81
2023-02-16T05:08:07.888Z,0.81
2023-02-16T05:10:35.256Z,0.82
2023-02-16T05:13:21.400Z,0.81
2023-02-16T05:15:48.663Z,0.79
2023-02-16T05:18:15.894Z,0.72
2023-02-16T05:21:01.883Z,0.74
2023-02-16T05:23:29.321Z,0.79
2023-02-16T05:25:56.448Z,0.92
2023-02-16T05:28:23.897Z,0.92
2023-02-16T05:30:51.335Z,0.84
2023-02-16T05:33:18.621Z,0.76
2023-02-16T05:35:45.876Z,0.76
2023-02-16T05:38:13.012Z,0.62
2023-02-16T05:40:40.171Z,0.57
2023-02-16T05:43:07.315Z,0.59
2023-02-16T05:45:34.472Z,0.63
2023-02-16T05:48:01.624Z,0.77
2023-02-16T05:50:28.766Z,0.75
2023-02-16T05:52:59.933Z,0.76
2023-02-16T05:55:27.147Z,0.76
2023-02-16T05:57:54.306Z,0.70
2023-02-16T06:00:21.591Z,0.67
2023-02-16T06:02:48.792Z,0.70
2023-02-16T06:05:16.096Z,0.64
2023-02-16T06:07:43.532Z,0.55
2023-02-16T06:10:11.025Z,0.55
2023-02-16T06:12:38.231Z,0.61
2023-02-16T06:15:05.550Z,0.66
2023-02-16T06:17:32.700Z,0.66
2023-02-16T06:19:59.823Z,0.64
2023-02-16T06:22:26.949Z,0.72
2023-02-16T06:24:54.147Z,0.74
2023-02-16T06:27:21.413Z,0.77
2023-02-16T06:29:48.747Z,0.61
2023-02-16T06:32:15.967Z,0.56
2023-02-16T06:34:43.213Z,0.66
2023-02-16T06:37:10.348Z,0.74
2023-02-16T06:39:37.524Z,0.73
2023-02-16T06:42:04.909Z,0.79
2023-02-16T06:44:32.118Z,0.82
2023-02-16T06:46:59.405Z,0.93
2023-02-16T06:49:27.855Z,0.96
2023-02-16T06:51:55.333Z,1.04
2023-02-16T06:54:22.639Z,1.06
2023-02-16T06:56:49.842Z,1.12
2023-02-16T06:59:17.017Z,1.19
2023-02-16T07:01:45.438Z,1.27
2023-02-16T07:04:12.775Z,1.24
2023-02-16T07:06:41.199Z,1.31
2023-02-16T07:09:10.568Z,1.32
2023-02-16T07:11:38.708Z,1.36
2023-02-16T07:14:05.936Z,1.40
2023-02-16T07:16:33.173Z,1.47
2023-02-16T07:19:00.445Z,1.51
2023-02-16T07:21:27.834Z,1.65
2023-02-16T07:23:54.957Z,1.77
2023-02-16T07:26:22.159Z,1.87
2023-02-16T07:28:49.429Z,1.94
2023-02-16T07:31:17.242Z,2.01
2023-02-16T07:33:45.104Z,2.06
2023-02-16T07:36:13.889Z,2.10
2023-02-16T07:38:41.966Z,2.15
2023-02-16T07:41:10.481Z,2.21
2023-02-16T07:43:39.224Z,2.24
2023-02-16T07:46:06.597Z,2.28
2023-02-16T07:48:34.243Z,2.33
2023-02-16T07:51:02.087Z,2.40
2023-02-16T07:53:29.653Z,2.45
2023-02-16T07:55:57.146Z,2.52
2023-02-16T07:58:27.332Z,2.60
2023-02-16T08:01:11.169Z,2.66
2023-02-16T08:03:39.128Z,2.71
2023-02-16T08:06:07.864Z,2.79
2023-02-16T08:08:38.472Z,2.88
2023-02-16T08:11:19.894Z,3.01
2023-02-16T08:13:48.011Z,3.09
2023-02-16T08:16:21.393Z,3.24
2023-02-16T08:18:50.684Z,3.36
2023-02-16T08:21:23.551Z,3.47
2023-02-16T08:24:00.907Z,3.69
2023-02-16T08:26:37.399Z,3.94
2023-02-16T08:29:07.060Z,4.14
2023-02-16T08:31:38.016Z,4.36
2023-02-16T08:34:06.191Z,4.62
2023-02-16T08:36:38.197Z,4.91
2023-02-16T08:39:18.960Z,5.18
2023-02-16T08:41:48.229Z,5.44
2023-02-16T08:44:18.659Z,5.71
2023-02-16T08:46:49.085Z,5.92
2023-02-16T08:49:19.134Z,6.09
2023-02-16T08:51:52.094Z,6.38
2023-02-16T08:54:30.583Z,6.71
2023-02-16T08:56:59.809Z,6.93
2023-02-16T08:59:28.875Z,7.12
2023-02-16T09:01:58.212Z,7.22
2023-02-16T09:04:29.017Z,7.38
2023-02-16T09:06:58.626Z,7.64
2023-02-16T09:09:27.686Z,7.79
2023-02-16T09:11:55.235Z,8.10
2023-02-16T09:14:23.030Z,8.22
2023-02-16T09:16:50.434Z,8.34
2023-02-16T09:19:20.943Z,8.55
2023-02-16T09:21:50.815Z,8.64
2023-02-16T09:24:18.230Z,8.71
2023-02-16T09:26:45.459Z,8.81
2023-02-16T09:29:14.750Z,8.88
2023-02-16T09:31:44.231Z,9.07
2023-02-16T09:34:23.516Z,9.10
2023-02-16T09:36:51.335Z,9.15
2023-02-16T09:39:19.331Z,9.21
2023-02-16T09:42:56.003Z,9.54
2023-02-16T09:45:25.309Z,9.67
2023-02-16T09:47:55.131Z,9.53
2023-02-16T09:50:53.667Z,9.63
2023-02-16T09:53:41.225Z,9.81
2023-02-16T09:56:33.057Z,10.00
2023-02-16T09:59:14.730Z,10.16
2023-02-16T10:01:59.483Z,10.29
2023-02-16T10:05:20.355Z,10.27
2023-02-16T10:08:38.811Z,10.44
2023-02-16T10:11:46.866Z,10.58
2023-02-16T10:14:36.938Z,10.80
2023-02-16T10:17:15.918Z,11.01
2023-02-16T10:19:55.242Z,10.91
2023-02-16T10:22:39.705Z,11.14
2023-02-16T10:25:22.044Z,11.23
2023-02-16T10:28:41.545Z,11.43
2023-02-16T10:31:43.258Z,11.51
2023-02-16T10:34:36.205Z,11.54
2023-02-16T10:37:42.586Z,11.55
2023-02-16T10:40:27.703Z,11.64
2023-02-16T10:43:21.598Z,11.67
2023-02-16T10:45:59.079Z,13.12
2023-02-16T10:48:27.193Z,16.15
2023-02-16T10:51:09.272Z,17.29
2023-02-16T10:54:01.202Z,18.70
2023-02-16T10:56:52.261Z,19.78
2023-02-16T10:59:23.056Z,19.62
2023-02-16T11:02:00.765Z,18.81
2023-02-16T11:04:42.587Z,19.76
2023-02-16T11:07:20.859Z,14.73
2023-02-16T11:09:55.464Z,17.93
2023-02-16T11:12:38.920Z,20.15
2023-02-16T11:15:16.485Z,20.11
2023-02-16T11:18:08.009Z,14.03
2023-02-16T11:20:47.646Z,16.05
2023-02-16T11:23:17.815Z,15.78
2023-02-16T11:26:24.015Z,17.22
2023-02-16T11:28:53.059Z,18.94
2023-02-16T11:31:39.356Z,18.84
2023-02-16T11:34:32.523Z,19.62
2023-02-16T11:37:32.355Z,21.01
2023-02-16T11:40:19.875Z,19.13
2023-02-16T11:42:57.688Z,18.74
2023-02-16T11:45:35.201Z,16.55
2023-02-16T11:48:13.978Z,17.11
2023-02-16T11:51:07.859Z,15.01
2023-02-16T11:53:42.557Z,14.35
2023-02-16T11:56:29.497Z,13.95
2023-02-16T11:59:21.002Z,13.50
2023-02-16T12:02:36.676Z,13.52
2023-02-16T12:05:32.455Z,12.75
2023-02-16T12:08:41.464Z,13.52
2023-02-16T12:11:32.397Z,13.15
2023-02-16T12:14:23.024Z,13.34
2023-02-16T12:17:05.009Z,13.20
2023-02-16T12:19:44.295Z,13.31
2023-02-16T12:22:38.492Z,13.36
2023-02-16T12:25:56.453Z,13.52
2023-02-16T12:28:57.908Z,13.14
2023-02-16T12:32:11.505Z,12.73
2023-02-16T12:34:52.360Z,13.20
2023-02-16T12:37:47.702Z,13.35
2023-02-16T12:40:51.958Z,13.22
2023-02-16T12:43:42.024Z,13.46
2023-02-16T12:46:48.848Z,13.46
2023-02-16T12:49:24.577Z,13.76
2023-02-16T12:52:12.112Z,13.67
2023-02-16T12:54:54.030Z,13.52
2023-02-16T12:57:26.399Z,13.55
2023-02-16T13:00:16.856Z,13.57
2023-02-16T13:03:18.724Z,13.52
2023-02-16T13:05:57.452Z,13.80
2023-02-16T13:09:04.557Z,13.33
2023-02-16T13:12:04.381Z,13.07
2023-02-16T13:14:41.841Z,13.57
2023-02-16T13:17:26.810Z,13.92
2023-02-16T13:19:53.965Z,13.71
2023-02-16T13:23:07.520Z,13.41
2023-02-16T13:26:14.687Z,13.50
2023-02-16T13:29:28.969Z,13.53
2023-02-16T13:32:45.306Z,13.52
2023-02-16T13:35:33.478Z,13.61
2023-02-16T13:39:04.155Z,13.36
2023-02-16T13:42:17.413Z,13.46
2023-02-16T13:44:55.950Z,13.00
2023-02-16T13:47:38.993Z,13.65
2023-02-16T13:50:32.213Z,13.51
2023-02-16T13:53:20.957Z,13.68
2023-02-16T13:55:52.601Z,13.56
2023-02-16T13:58:19.670Z,13.76
2023-02-16T14:00:49.958Z,13.93
2023-02-16T14:03:22.913Z,13.68
2023-02-16T14:05:53.715Z,13.89
2023-02-16T14:08:31.740Z,13.94
2023-02-16T14:11:10.853Z,14.31
2023-02-16T14:13:38.923Z,14.13
2023-02-16T14:16:18.008Z,13.95
2023-02-16T14:19:25.652Z,13.34
2023-02-16T14:21:53.499Z,13.15
2023-02-16T14:24:37.657Z,13.30
2023-02-16T14:27:13.216Z,13.84
2023-02-16T14:29:59.631Z,13.97
2023-02-16T14:32:38.469Z,13.83
2023-02-16T14:35:22.040Z,13.76
2023-02-16T14:37:59.901Z,13.88
2023-02-16T14:40:36.144Z,14.04
2023-02-16T14:43:39.288Z,14.10
2023-02-16T14:46:18.240Z,14.48
2023-02-16T14:49:30.630Z,14.07
2023-02-16T14:52:37.760Z,14.28
2023-02-16T14:55:20.075Z,14.16
2023-02-16T14:57:56.398Z,14.17
2023-02-16T15:00:58.062Z,14.01
2023-02-16T15:03:39.168Z,13.83
2023-02-16T15:06:07.614Z,14.03
2023-02-16T15:08:40.130Z,14.26
2023-02-16T15:11:58.376Z,14.39
2023-02-16T15:14:27.142Z,14.43
2023-02-16T15:16:57.537Z,14.95
2023-02-16T15:19:30.827Z,16.08
2023-02-16T15:22:19.971Z,15.14
2023-02-16T15:25:16.761Z,16.62
2023-02-16T15:28:11.667Z,18.34
2023-02-16T15:31:00.334Z,19.28
2023-02-16T15:33:43.307Z,19.17
2023-02-16T15:36:16.224Z,19.57
2023-02-16T15:38:59.896Z,19.76
2023-02-16T15:41:34.027Z,19.56
2023-02-16T15:44:03.533Z,19.70
2023-02-16T15:46:42.025Z,19.87
2023-02-16T15:49:26.640Z,19.57
2023-02-16T15:51:57.593Z,19.55
2023-02-16T15:54:32.201Z,19.61
2023-02-16T15:57:04.443Z,19.85
2023-02-16T15:59:47.479Z,19.68
2023-02-16T16:02:22.850Z,19.76
2023-02-16T16:04:55.572Z,19.69
2023-02-16T16:07:40.031Z,19.55
2023-02-16T16:10:26.918Z,18.86
2023-02-16T16:13:03.112Z,18.67
2023-02-16T16:15:37.613Z,18.25
2023-02-16T16:18:06.077Z,18.30
2023-02-16T16:20:39.452Z,18.04
2023-02-16T16:23:27.093Z,17.03
2023-02-16T16:25:55.240Z,15.88
2023-02-16T16:28:28.430Z,15.13
2023-02-16T16:31:31.604Z,14.69
2023-02-16T16:34:10.818Z,14.05
2023-02-16T16:36:56.287Z,13.43
2023-02-16T16:39:35.145Z,13.18
2023-02-16T16:42:22.696Z,12.96
2023-02-16T16:44:59.495Z,12.93
2023-02-16T16:47:40.533Z,12.62
2023-02-16T16:50:35.734Z,12.98
2023-02-16T16:53:30.203Z,13.25
2023-02-16T16:55:58.477Z,12.95
2023-02-16T16:58:26.376Z,12.81
2023-02-16T17:00:53.519Z,12.55
2023-02-16T17:03:20.756Z,12.49
2023-02-16T17:05:48.038Z,12.39
2023-02-16T17:08:15.173Z,12.10
2023-02-16T17:10:42.863Z,12.13
2023-02-16T17:13:19.154Z,11.78
2023-02-16T17:16:21.922Z,12.06
2023-02-16T17:18:49.186Z,12.23
2023-02-16T17:21:16.991Z,11.93
2023-02-16T17:23:52.544Z,11.71
2023-02-16T17:26:22.529Z,11.68
2023-02-16T17:28:50.238Z,11.33
2023-02-16T17:31:17.588Z,11.46
2023-02-16T17:33:44.999Z,11.25
2023-02-16T17:36:15.782Z,11.06
2023-02-16T17:38:44.356Z,11.13
2023-02-16T17:41:24.459Z,11.02
2023-02-16T17:43:52.096Z,10.97
2023-02-16T17:46:21.428Z,11.07
2023-02-16T17:48:55.080Z,10.89
2023-02-16T17:51:25.461Z,10.82
2023-02-16T17:53:52.857Z,10.74
2023-02-16T17:56:23.951Z,10.87
2023-02-16T17:58:51.914Z,10.92
2023-02-16T18:01:21.136Z,10.90
2023-02-16T18:03:48.733Z,10.61
2023-02-16T18:06:20.775Z,10.61
2023-02-16T18:08:48.252Z,10.35
2023-02-16T18:11:15.436Z,10.23
2023-02-16T18:13:43.256Z,10.15
2023-02-16T18:16:18.767Z,10.17
2023-02-16T18:18:46.172Z,10.30
2023-02-16T18:21:13.816Z,10.36
2023-02-16T18:23:41.051Z,10.26
2023-02-16T18:26:08.290Z,10.39
2023-02-16T18:28:35.924Z,10.31
2023-02-16T18:31:07.380Z,10.10
2023-02-16T18:33:35.106Z,10.07
2023-02-16T18:36:03.207Z,9.83
2023-02-16T18:38:30.844Z,9.91
2023-02-16T18:40:59.409Z,9.97
2023-02-16T18:43:26.604Z,9.97
2023-02-16T18:45:55.859Z,9.83
2023-02-16T18:48:23.729Z,9.72
2023-02-16T18:50:52.014Z,9.62
2023-02-16T18:53:19.165Z,9.62
2023-02-16T18:55:46.385Z,9.66
2023-02-16T18:58:14.866Z,9.52
2023-02-16T19:00:43.249Z,9.40
2023-02-16T19:03:10.622Z,9.29
2023-02-16T19:05:37.866Z,9.39
2023-02-16T19:08:05.400Z,9.61
2023-02-16T19:10:33.464Z,9.46
2023-02-16T19:13:02.113Z,9.34
2023-02-16T19:15:29.466Z,9.15
2023-02-16T19:17:56.734Z,8.95
2023-02-16T19:20:24.265Z,9.12
2023-02-16T19:22:52.199Z,9.33
2023-02-16T19:25:20.193Z,9.41
2023-02-16T19:27:48.014Z,9.33
2023-02-16T19:30:15.634Z,9.33
2023-02-16T19:32:42.936Z,9.23
2023-02-16T19:35:12.052Z,9.09
2023-02-16T19:37:39.653Z,8.93
2023-02-16T19:40:10.989Z,8.84
2023-02-16T19:42:38.983Z,8.69
2023-02-16T19:45:08.041Z,8.89
2023-02-16T19:47:35.362Z,8.85
2023-02-16T19:50:03.769Z,8.68
2023-02-16T19:52:30.931Z,8.48
2023-02-16T19:54:58.102Z,8.39
2023-02-16T19:57:25.610Z,8.33
2023-02-16T19:59:52.783Z,8.19
2023-02-16T20:02:20.034Z,8.11
2023-02-16T20:04:47.330Z,8.06
2023-02-16T20:07:14.742Z,8.07
2023-02-16T20:09:42.107Z,8.06
2023-02-16T20:12:09.794Z,7.94
2023-02-16T20:14:37.048Z,7.80
2023-02-16T20:17:04.527Z,7.73
2023-02-16T20:19:31.752Z,7.81
2023-02-16T20:21:58.890Z,7.79
2023-02-16T20:24:26.043Z,7.78
2023-02-16T20:26:53.333Z,7.78
2023-02-16T20:29:20.993Z,7.70
2023-02-16T20:31:56.196Z,7.70
2023-02-16T20:34:26.038Z,7.65
2023-02-16T20:36:54.250Z,7.64
2023-02-16T20:39:21.654Z,7.57
2023-02-16T20:41:49.445Z,7.57
2023-02-16T20:44:16.704Z,7.47
2023-02-16T20:46:44.076Z,7.45
2023-02-16T20:49:13.376Z,7.51
2023-02-16T20:51:41.341Z,7.50
2023-02-16T20:54:09.712Z,7.55
2023-02-16T20:56:36.884Z,7.58
2023-02-16T20:59:04.805Z,7.60
2023-02-16T21:01:43.333Z,7.61
2023-02-16T21:04:11.204Z,7.60
2023-02-16T21:06:38.509Z,7.57
2023-02-16T21:09:08.566Z,7.55
2023-02-16T21:11:37.591Z,7.55
2023-02-16T21:14:07.634Z,7.62
2023-02-16T21:16:34.918Z,7.63
2023-02-16T21:19:07.240Z,7.63
2023-02-16T21:21:40.824Z,7.63
2023-02-16T21:24:08.449Z,7.59
2023-02-16T21:26:35.692Z,7.46
2023-02-16T21:29:02.876Z,7.37
2023-02-16T21:31:30.107Z,7.34
2023-02-16T21:33:57.420Z,7.23
2023-02-16T21:36:27.462Z,7.14
2023-02-16T21:38:55.045Z,7.09
2023-02-16T21:41:29.164Z,7.12
2023-02-16T21:44:14.067Z,7.13
2023-02-16T21:46:46.528Z,7.10
2023-02-16T21:49:19.349Z,7.08
2023-02-16T21:51:48.504Z,7.08
2023-02-16T21:54:39.300Z,7.04
2023-02-16T21:57:06.469Z,6.85
2023-02-16T21:59:34.362Z,6.87
2023-02-16T22:02:01.600Z,6.84
2023-02-16T22:04:28.799Z,6.79
2023-02-16T22:06:56.140Z,6.81
2023-02-16T22:09:24.012Z,6.76
2023-02-16T22:11:51.952Z,6.77
2023-02-16T22:14:19.734Z,6.74
2023-02-16T22:16:48.543Z,6.75
2023-02-16T22:19:19.084Z,6.66
2023-02-16T22:21:48.667Z,6.64
2023-02-16T22:24:18.916Z,6.61
2023-02-16T22:26:49.156Z,6.58
2023-02-16T22:29:17.823Z,6.55
2023-02-16T22:31:48.406Z,6.65
2023-02-16T22:34:19.816Z,6.60
2023-02-16T22:36:47.879Z,6.42
2023-02-16T22:39:17.296Z,6.40
2023-02-16T22:41:44.481Z,6.39
2023-02-16T22:44:12.463Z,6.39
2023-02-16T22:46:39.730Z,6.29
2023-02-16T22:49:06.992Z,6.11
2023-02-16T22:51:34.332Z,6.05
2023-02-16T22:54:02.662Z,6.06
2023-02-16T22:56:32.624Z,5.92
2023-02-16T22:59:01.783Z,5.92
2023-02-16T23:01:31.295Z,5.88
2023-02-16T23:04:01.127Z,5.84
2023-02-16T23:06:35.789Z,5.66
2023-02-16T23:09:11.441Z,5.53
2023-02-16T23:11:38.681Z,5.41
2023-02-16T23:14:06.729Z,5.47
2023-02-16T23:16:33.996Z,5.55
2023-02-16T23:19:01.262Z,5.43
2023-02-16T23:21:32.386Z,5.36
2023-02-16T23:24:00.256Z,5.34
2023-02-16T23:26:31.041Z,5.26
2023-02-16T23:29:02.262Z,5.19
2023-02-16T23:31:35.581Z,5.20
2023-02-16T23:34:05.511Z,5.22
2023-02-16T23:36:35.924Z,5.31
2023-02-16T23:39:13.262Z,5.22
2023-02-16T23:41:41.932Z,5.13
2023-02-16T23:44:12.431Z,5.11
2023-02-16T23:46:39.857Z,4.96
2023-02-16T23:49:07.191Z,4.92
2023-02-16T23:51:34.325Z,4.92
2023-02-16T23:54:01.486Z,4.97
2023-02-16T23:56:29.598Z,4.92
2023-02-16T23:59:01.485Z,4.93
